Check out our new BloomSky Weather System.

Active alerts


No alerts


Thunder radar  blitzortung!


Rain radar more information rain snow radar


Visit our other weather sites:

Template documentation
and downloads

And another site



Weather Underground History page Text

Daily Summary for February 8, 2018 Units:  Metric    English   Both
« Previous Day
Next Day »
Daily Weekly Monthly Yearly Custom
  High: Low: Average:
Temperature: -17.8 °C 2.8 °C 9.5 °C
Dew Point: -17.8 °C 1.6 °C 6.3 °C
Humidity: Humidity % 62 % 81 %
Wind Speed: 0 km/h 0 km/h 2.4 km/h
Wind Gust: 0 km/h - -
Wind:- - South
Pressure: 0 hPa 1024.6 hPa -
Precipitation: 0 mm    
Historical Graphs
 
 
Tabular Data for February 8, 2018
Time Temperature Dew Point Pressure Wind Wind Speed Wind Gust Humidity Rainfall Rate (Hourly)
-17.8 °C -17.8 °C 0 hPa Calm     Humidity % 0 mm
00:01 5.7 °C 4.8 °C 1029.3 hPa NNE 3.2 km/h 14.5 km/h 94 % 0 mm
00:06 5.7 °C 4.8 °C 1029.3 hPa NNW 1.6 km/h 19.3 km/h 94 % 0 mm
00:14 5.7 °C 4.8 °C 1029.3 hPa NNE 4.8 km/h 19.3 km/h 94 % 0 mm
00:19 5.7 °C 4.7 °C 1029 hPa Calm   19.3 km/h 93 % 0 mm
00:24 5.7 °C 4.7 °C 1029 hPa NW 3.2 km/h 19.3 km/h 93 % 0 mm
00:29 5.7 °C 4.7 °C 1029.3 hPa NW 6.4 km/h 19.3 km/h 93 % 0 mm
00:34 5.7 °C 4.7 °C 1029.3 hPa ESE 11.3 km/h 19.3 km/h 93 % 0 mm
00:39 5.7 °C 4.7 °C 1029.3 hPa North 4.8 km/h 17.7 km/h 93 % 0 mm
00:44 5.7 °C 4.5 °C 1029.3 hPa ENE 4.8 km/h 17.7 km/h 92 % 0 mm
00:49 5.7 °C 4.5 °C 1029.3 hPa North 3.2 km/h 17.7 km/h 92 % 0 mm
00:54 5.7 °C 4.5 °C 1029.3 hPa NNW 4.8 km/h 16.1 km/h 92 % 0 mm
00:59 5.7 °C 4.5 °C 1029.3 hPa North 4.8 km/h 16.1 km/h 92 % 0 mm
01:04 5.7 °C 4.5 °C 1029.3 hPa NNW 3.2 km/h 16.1 km/h 92 % 0 mm
01:09 5.7 °C 4.5 °C 1029.3 hPa North 6.4 km/h 16.1 km/h 92 % 0 mm
01:14 5.7 °C 4.5 °C 1029.3 hPa SW 4.8 km/h 14.5 km/h 92 % 0 mm
01:19 5.6 °C 4.4 °C 1029.3 hPa North 9.7 km/h 14.5 km/h 92 % 0 mm
01:24 5.6 °C 4.4 °C 1029.3 hPa NNW 3.2 km/h 17.7 km/h 92 % 0 mm
01:29 5.6 °C 4.4 °C 1029.3 hPa NNE 3.2 km/h 17.7 km/h 92 % 0 mm
01:34 5.6 °C 4.4 °C 1029.3 hPa NW 1.6 km/h 17.7 km/h 92 % 0 mm
01:39 5.6 °C 4.4 °C 1029.3 hPa Calm   14.5 km/h 92 % 0 mm
01:44 5.6 °C 4.4 °C 1029.3 hPa Calm   14.5 km/h 92 % 0 mm
01:49 5.6 °C 4.4 °C 1029.3 hPa NW 4.8 km/h 9.7 km/h 92 % 0 mm
01:55 5.6 °C 4.4 °C 1029.3 hPa North 9.7 km/h 9.7 km/h 92 % 0 mm
01:59 5.5 °C 4.3 °C 1029.3 hPa NNW 12.9 km/h 12.9 km/h 92 % 0 mm
02:05 5.5 °C 4.3 °C 1029.3 hPa NNW 6.4 km/h 12.9 km/h 92 % 0 mm
02:10 5.5 °C 4.3 °C 1029.3 hPa NNW 4.8 km/h 12.9 km/h 92 % 0 mm
02:15 5.4 °C 4.2 °C 1029.3 hPa NNW 6.4 km/h 16.1 km/h 92 % 0 mm
02:20 5.4 °C 4.2 °C 1029.3 hPa NW 1.6 km/h 16.1 km/h 92 % 0 mm
02:25 5.4 °C 4.2 °C 1029.3 hPa NNW 3.2 km/h 16.1 km/h 92 % 0 mm
02:30 5.5 °C 4.3 °C 1029.3 hPa North 4.8 km/h 14.5 km/h 92 % 0 mm
02:35 5.5 °C 4.3 °C 1029.3 hPa NW 1.6 km/h 11.3 km/h 92 % 0 mm
02:40 5.5 °C 4.3 °C 1029.3 hPa NNW 1.6 km/h 11.3 km/h 92 % 0 mm
02:45 5.5 °C 4.3 °C 1029.3 hPa ENE 1.6 km/h 8 km/h 92 % 0 mm
02:50 5.5 °C 4.3 °C 1029.3 hPa North 1.6 km/h 8 km/h 92 % 0 mm
02:55 5.4 °C 4.2 °C 1029.3 hPa NNW 4.8 km/h 12.9 km/h 92 % 0 mm
03:00 5.4 °C 4.2 °C 1029.3 hPa ENE 6.4 km/h 12.9 km/h 92 % 0 mm
03:02 5.4 °C 4.2 °C 1029.3 hPa NW 1.6 km/h 12.9 km/h 92 % 0 mm
03:07 5.4 °C 4.2 °C 1029.3 hPa NNE 6.4 km/h 12.9 km/h 92 % 0 mm
03:12 5.3 °C 4.1 °C 1029.3 hPa NW 1.6 km/h 11.3 km/h 92 % 0 mm
03:17 5.3 °C 4.1 °C 1029.3 hPa NW 3.2 km/h 11.3 km/h 92 % 0 mm
03:22 5.2 °C 4 °C 1029.3 hPa North 1.6 km/h 11.3 km/h 92 % 0 mm
03:27 5.1 °C 3.9 °C 1029 hPa NW 1.6 km/h 11.3 km/h 92 % 0 mm
03:32 5.1 °C 3.9 °C 1029 hPa NNE 3.2 km/h 9.7 km/h 92 % 0 mm
03:37 4.9 °C 3.7 °C 1029 hPa Calm   9.7 km/h 92 % 0 mm
03:42 4.9 °C 3.7 °C 1029 hPa NNW 4.8 km/h 9.7 km/h 92 % 0 mm
03:48 4.8 °C 3.6 °C 1029 hPa Calm   16.1 km/h 92 % 0 mm
03:53 4.7 °C 3.5 °C 1029 hPa Calm   16.1 km/h 92 % 0 mm
03:58 4.7 °C 3.5 °C 1029 hPa North 3.2 km/h 16.1 km/h 92 % 0 mm
04:03 4.6 °C 3.3 °C 1029.3 hPa Calm   12.9 km/h 91 % 0 mm
04:08 4.4 °C 3.1 °C 1029 hPa ENE 1.6 km/h 12.9 km/h 91 % 0 mm
04:12 4.4 °C 3.1 °C 1029 hPa North 1.6 km/h 12.9 km/h 91 % 0 mm
04:17 4.4 °C 2.9 °C 1029 hPa NNW 1.6 km/h 11.3 km/h 90 % 0 mm
04:27 4.3 °C 2.8 °C 1029 hPa Calm   8 km/h 90 % 0 mm
04:32 4.3 °C 2.8 °C 1029 hPa Calm   11.3 km/h 90 % 0 mm
04:37 4.2 °C 2.7 °C 1029 hPa North 6.4 km/h 11.3 km/h 90 % 0 mm
04:42 4.2 °C 2.7 °C 1029 hPa NNW 1.6 km/h 11.3 km/h 90 % 0 mm
04:47 4.1 °C 2.6 °C 1029 hPa North 1.6 km/h 11.3 km/h 90 % 0 mm
04:52 4.1 °C 2.6 °C 1029 hPa ESE 3.2 km/h 11.3 km/h 90 % 0 mm
05:02 4.1 °C 2.6 °C 1029 hPa North 1.6 km/h 9.7 km/h 90 % 0 mm
05:07 4 °C 2.5 °C 1029 hPa North 4.8 km/h 9.7 km/h 90 % 0 mm
05:12 3.9 °C 2.4 °C 1029 hPa NNW 4.8 km/h 12.9 km/h 90 % 0 mm
05:17 3.9 °C 2.4 °C 1029 hPa NNW 1.6 km/h 12.9 km/h 90 % 0 mm
05:22 3.9 °C 2.4 °C 1029 hPa North 1.6 km/h 12.9 km/h 90 % 0 mm
05:27 3.8 °C 2.3 °C 1029 hPa Calm   12.9 km/h 90 % 0 mm
05:32 3.9 °C 2.4 °C 1029 hPa NNW 3.2 km/h 14.5 km/h 90 % 0 mm
05:37 3.8 °C 2.3 °C 1029.3 hPa NW 3.2 km/h 14.5 km/h 90 % 0 mm
05:42 3.8 °C 2.3 °C 1029.3 hPa NNW 1.6 km/h 14.5 km/h 90 % 0 mm
05:47 3.8 °C 2.3 °C 1029.3 hPa Calm   11.3 km/h 90 % 0 mm
05:52 3.8 °C 2.3 °C 1029.3 hPa NNW 3.2 km/h 8 km/h 90 % 0 mm
05:57 3.7 °C 2.2 °C 1029.3 hPa Calm   9.7 km/h 90 % 0 mm
06:02 3.7 °C 2.2 °C 1029.3 hPa North 3.2 km/h 9.7 km/h 90 % 0 mm
06:07 3.6 °C 2.3 °C 1029.3 hPa NNE 9.7 km/h 11.3 km/h 91 % 0 mm
06:12 3.6 °C 2.3 °C 1029.3 hPa NNW 6.4 km/h 11.3 km/h 91 % 0 mm
06:17 3.5 °C 2.2 °C 1029.3 hPa NNW 1.6 km/h 11.3 km/h 91 % 0 mm
06:22 3.4 °C 2.1 °C 1029.3 hPa NNW 1.6 km/h 11.3 km/h 91 % 0 mm
06:27 3.4 °C 2.1 °C 1029.3 hPa NNW 1.6 km/h 11.3 km/h 91 % 0 mm
06:32 3.3 °C 2 °C 1029.3 hPa NW 1.6 km/h 12.9 km/h 91 % 0 mm
06:37 3.2 °C 1.9 °C 1029.7 hPa NNE 4.8 km/h 12.9 km/h 91 % 0 mm
06:42 3.2 °C 1.9 °C 1029.7 hPa Calm   12.9 km/h 91 % 0 mm
06:47 3.1 °C 1.8 °C 1030 hPa NNW 3.2 km/h 11.3 km/h 91 % 0 mm
06:52 3.1 °C 1.9 °C 1029.7 hPa North 9.7 km/h 9.7 km/h 92 % 0 mm
06:57 3.1 °C 1.9 °C 1030 hPa NNE 8 km/h 9.7 km/h 92 % 0 mm
07:02 3 °C 1.8 °C 1030 hPa NW 1.6 km/h 9.7 km/h 92 % 0 mm
07:07 2.9 °C 1.7 °C 1030 hPa Calm   9.7 km/h 92 % 0 mm
07:12 2.9 °C 1.7 °C 1030 hPa North 3.2 km/h 9.7 km/h 92 % 0 mm
07:17 2.9 °C 1.7 °C 1030 hPa Calm   11.3 km/h 92 % 0 mm
07:22 2.9 °C 1.7 °C 1030 hPa North 3.2 km/h 11.3 km/h 92 % 0 mm
07:27 2.8 °C 1.6 °C 1030 hPa North 3.2 km/h 11.3 km/h 92 % 0 mm
07:32 2.8 °C 1.6 °C 1030.4 hPa North 1.6 km/h 8 km/h 92 % 0 mm
07:37 2.8 °C 1.6 °C 1030.4 hPa Calm   9.7 km/h 92 % 0 mm
07:42 2.8 °C 1.6 °C 1030.4 hPa North 1.6 km/h 9.7 km/h 92 % 0 mm
07:47 2.9 °C 1.7 °C 1030.4 hPa NW 1.6 km/h 9.7 km/h 92 % 0 mm
07:52 2.9 °C 1.7 °C 1030.4 hPa Calm   6.4 km/h 92 % 0 mm
07:57 3.1 °C 1.9 °C 1030.7 hPa Calm   6.4 km/h 92 % 0 mm
08:02 3.2 °C 2.2 °C 1030.7 hPa Calm   6.4 km/h 93 % 0 mm
08:07 3.4 °C 2.2 °C 1030.7 hPa Calm   8 km/h 92 % 0 mm
08:12 3.5 °C 2.3 °C 1030.7 hPa NNW 3.2 km/h 11.3 km/h 92 % 0 mm
08:17 3.6 °C 2.3 °C 1030.7 hPa Calm   12.9 km/h 91 % 0 mm
08:23 3.7 °C 2.4 °C 1030.7 hPa North 8 km/h 12.9 km/h 91 % 0 mm
08:28 3.9 °C 2.6 °C 1030.4 hPa North 3.2 km/h 12.9 km/h 91 % 0 mm
08:33 4.2 °C 2.9 °C 1030.7 hPa NNE 1.6 km/h 9.7 km/h 91 % 0 mm
08:38 4.4 °C 2.7 °C 1030.4 hPa North 4.8 km/h 9.7 km/h 89 % 0 mm
08:43 4.5 °C 2.8 °C 1030.4 hPa Calm   8 km/h 89 % 0 mm
08:48 4.8 °C 3 °C 1030.7 hPa Calm   8 km/h 88 % 0 mm
08:53 4.9 °C 2.9 °C 1030.7 hPa Calm   9.7 km/h 87 % 0 mm
08:58 5 °C 2.9 °C 1030.7 hPa NNW 6.4 km/h 9.7 km/h 86 % 0 mm
09:03 5.1 °C 3 °C 1030.4 hPa North 3.2 km/h 14.5 km/h 86 % 0 mm
09:08 5.3 °C 3.1 °C 1030.7 hPa Calm   14.5 km/h 86 % 0 mm
09:13 5.3 °C 2.8 °C 1030.4 hPa ENE 1.6 km/h 14.5 km/h 84 % 0 mm
09:18 5.6 °C 3.3 °C 1030.7 hPa WSW 1.6 km/h 9.7 km/h 85 % 0 mm
09:23 5.8 °C 3.3 °C 1030.7 hPa NW 6.4 km/h 9.7 km/h 84 % 0 mm
09:28 5.9 °C 3.4 °C 1030.7 hPa North 3.2 km/h 9.7 km/h 84 % 0 mm
09:33 5.9 °C 3.2 °C 1030.7 hPa ENE 3.2 km/h 9.7 km/h 83 % 0 mm
09:38 5.9 °C 3.2 °C 1030.4 hPa NNW 1.6 km/h 9.7 km/h 83 % 0 mm
09:43 6.3 °C 3.8 °C 1030.4 hPa NNW 1.6 km/h 8 km/h 84 % 0 mm
09:48 6.3 °C 3.5 °C 1030.4 hPa North 3.2 km/h 9.7 km/h 82 % 0 mm
09:53 6.4 °C 3.6 °C 1030.4 hPa Calm   9.7 km/h 82 % 0 mm
09:58 6.7 °C 3.8 °C 1030.4 hPa North 4.8 km/h 9.7 km/h 82 % 0 mm
10:03 6.8 °C 3.6 °C 1030.4 hPa Calm   9.7 km/h 80 % 0 mm
10:08 7.1 °C 4.2 °C 1030.4 hPa NNW 1.6 km/h 8 km/h 82 % 0 mm
10:13 7.2 °C 3.8 °C 1030.7 hPa ESE 1.6 km/h 8 km/h 79 % 0 mm
10:18 7.4 °C 4.4 °C 1030.4 hPa NNE 1.6 km/h 8 km/h 81 % 0 mm
10:23 7.6 °C 4.2 °C 1030.4 hPa ENE 4.8 km/h 9.7 km/h 79 % 0 mm
10:28 7.7 °C 4.3 °C 1030.4 hPa Calm   9.7 km/h 79 % 0 mm
10:33 7.8 °C 4.2 °C 1030.4 hPa SE 3.2 km/h 9.7 km/h 78 % 0 mm
10:38 8 °C 4.8 °C 1030 hPa Calm   11.3 km/h 80 % 0 mm
10:43 8.2 °C 4.4 °C 1030 hPa ESE 6.4 km/h 11.3 km/h 77 % 0 mm
10:48 8.3 °C 4.7 °C 1030 hPa Calm   11.3 km/h 78 % 0 mm
10:53 8.7 °C 5.1 °C 1030 hPa NNE 1.6 km/h 11.3 km/h 78 % 0 mm
10:58 8.9 °C 5.1 °C 1030 hPa Calm   9.7 km/h 77 % 0 mm
11:03 9.3 °C 5.3 °C 1030 hPa East 4.8 km/h 6.4 km/h 76 % 0 mm
11:08 9.4 °C 5.6 °C 1029.7 hPa ESE 3.2 km/h 6.4 km/h 77 % 0 mm
11:13 9.6 °C 5.4 °C 1029.7 hPa Calm   6.4 km/h 75 % 0 mm
11:18 9.8 °C 5.6 °C 1029.7 hPa NNW 1.6 km/h 6.4 km/h 75 % 0 mm
11:23 9.7 °C 5.3 °C 1029.7 hPa NNW 3.2 km/h 9.7 km/h 74 % 0 mm
11:28 9.9 °C 5.7 °C 1029.7 hPa ENE 4.8 km/h 9.7 km/h 75 % 0 mm
11:33 10.1 °C 5.9 °C 1029.7 hPa Calm   9.7 km/h 75 % 0 mm
11:38 10.3 °C 5.9 °C 1029.3 hPa Calm   9.7 km/h 74 % 0 mm
11:43 10.3 °C 5.9 °C 1029.3 hPa Calm   9.7 km/h 74 % 0 mm
11:48 10.8 °C 6.4 °C 1029.3 hPa NNE 1.6 km/h 9.7 km/h 74 % 0 mm
11:53 11 °C 6.1 °C 1029.3 hPa East 3.2 km/h 8 km/h 72 % 0 mm
11:58 11.1 °C 6.4 °C 1029 hPa North 4.8 km/h 6.4 km/h 73 % 0 mm
12:03 11.1 °C 6.2 °C 1029 hPa ENE 1.6 km/h 9.7 km/h 72 % 0 mm
12:08 11.1 °C 6 °C 1029 hPa ESE 3.2 km/h 9.7 km/h 71 % 0 mm
12:13 11.3 °C 6.4 °C 1029 hPa ENE 1.6 km/h 9.7 km/h 72 % 0 mm
12:18 11.6 °C 6.7 °C 1029 hPa ESE 1.6 km/h 9.7 km/h 72 % 0 mm
12:23 11.9 °C 7 °C 1028.7 hPa SW 1.6 km/h 9.7 km/h 72 % 0 mm
12:28 12.3 °C 7 °C 1028.7 hPa NE 3.2 km/h 9.7 km/h 70 % 0 mm
12:33 12.6 °C 7.1 °C 1028.7 hPa Calm   8 km/h 69 % 0 mm
12:38 12.8 °C 7.3 °C 1028.7 hPa ENE 1.6 km/h 9.7 km/h 69 % 0 mm
12:39 12.8 °C 7 °C 1028.7 hPa SE 3.2 km/h 9.7 km/h 68 % 0 mm
12:44 12.8 °C 7 °C 1028.7 hPa South 1.6 km/h 9.7 km/h 68 % 0 mm
12:49 13.2 °C 7.4 °C 1028.3 hPa Calm   9.7 km/h 68 % 0 mm
12:54 13.5 °C 7.7 °C 1028.3 hPa East 6.4 km/h 9.7 km/h 68 % 0 mm
12:59 13.4 °C 7.4 °C 1028.3 hPa Calm   9.7 km/h 67 % 0 mm
13:04 13.7 °C 7.9 °C 1028 hPa SSE 8 km/h 8 km/h 68 % 0 mm
13:09 13.9 °C 7.9 °C 1028 hPa SW 1.6 km/h 9.7 km/h 67 % 0 mm
13:12 14.3 °C 8.3 °C 1027.7 hPa East 1.6 km/h 9.7 km/h 67 % 0 mm
13:22 14.3 °C 7.6 °C 1027.7 hPa SSW 1.6 km/h 8 km/h 64 % 0 mm
13:27 14.4 °C 7.9 °C 1027.3 hPa ESE 4.8 km/h 8 km/h 65 % 0 mm
13:32 14.7 °C 8.4 °C 1027.3 hPa Calm   6.4 km/h 66 % 0 mm
13:37 14.8 °C 7.8 °C 1027.3 hPa Calm   8 km/h 63 % 0 mm
13:38 14.8 °C 8.3 °C 1027 hPa Calm   8 km/h 65 % 0 mm
13:47 15 °C 8.5 °C 1027 hPa SSW 3.2 km/h 8 km/h 65 % 0 mm
13:54 15.3 °C 8.3 °C 1027 hPa WNW 1.6 km/h 8 km/h 63 % 0 mm
13:59 15.2 °C 8 °C 1027 hPa Calm   8 km/h 62 % 0 mm
14:07 15.5 °C 8.7 °C 1026.6 hPa SE 3.2 km/h 6.4 km/h 64 % 0 mm
14:14 15.7 °C 8.4 °C 1026.6 hPa West 1.6 km/h 8 km/h 62 % 0 mm
14:19 16 °C 9.2 °C 1026.6 hPa NW 3.2 km/h 8 km/h 64 % 0 mm
14:24 16.1 °C 8.8 °C 1026.6 hPa Calm   8 km/h 62 % 0 mm
14:29 16.2 °C 8.9 °C 1026.6 hPa NE 1.6 km/h 8 km/h 62 % 0 mm
14:34 16.3 °C 9.2 °C 1026.6 hPa SE 1.6 km/h 6.4 km/h 63 % 0 mm
14:39 16.4 °C 9.3 °C 1026.6 hPa ESE 9.7 km/h 9.7 km/h 63 % 0 mm
14:44 16.3 °C 9.2 °C 1026.3 hPa Calm   12.9 km/h 63 % 0 mm
14:49 16.5 °C 9.4 °C 1026.3 hPa NE 3.2 km/h 12.9 km/h 63 % 0 mm
14:54 16.2 °C 8.9 °C 1026.3 hPa East 1.6 km/h 12.9 km/h 62 % 0 mm
14:59 16.4 °C 10 °C 1026 hPa ENE 4.8 km/h 9.7 km/h 66 % 0 mm
15:05 16.6 °C 9.8 °C 1026 hPa SE 8 km/h 9.7 km/h 64 % 0 mm
15:10 16.4 °C 9.1 °C 1026 hPa South 8 km/h 9.7 km/h 62 % 0 mm
15:15 16.1 °C 9.3 °C 1026 hPa SE 8 km/h 12.9 km/h 64 % 0 mm
15:20 15.8 °C 9.2 °C 1026 hPa ESE 1.6 km/h 12.9 km/h 65 % 0 mm
15:25 15.6 °C 9.3 °C 1026 hPa SSE 1.6 km/h 11.3 km/h 66 % 0 mm
15:30 15.4 °C 9.1 °C 1026 hPa SE 3.2 km/h 9.7 km/h 66 % 0 mm
15:35 15.3 °C 9 °C 1026 hPa SE 6.4 km/h 12.9 km/h 66 % 0 mm
15:40 15.1 °C 9 °C 1026 hPa ESE 3.2 km/h 12.9 km/h 67 % 0 mm
15:45 15.1 °C 9 °C 1026 hPa SSE 9.7 km/h 12.9 km/h 67 % 0 mm
15:50 15.2 °C 9.3 °C 1026 hPa SE 6.4 km/h 11.3 km/h 68 % 0 mm
15:55 15.2 °C 9.3 °C 1026 hPa SE 1.6 km/h 11.3 km/h 68 % 0 mm
16:00 15.1 °C 9.2 °C 1026 hPa SSE 6.4 km/h 11.3 km/h 68 % 0 mm
16:05 14.9 °C 9 °C 1025.6 hPa Calm   9.7 km/h 68 % 0 mm
16:10 14.9 °C 9.3 °C 1026 hPa SSW 3.2 km/h 9.7 km/h 69 % 0 mm
16:15 14.9 °C 9.3 °C 1026 hPa SE 6.4 km/h 8 km/h 69 % 0 mm
16:20 14.9 °C 9.5 °C 1026 hPa SE 6.4 km/h 8 km/h 70 % 0 mm
16:25 14.9 °C 9.3 °C 1026 hPa SE 1.6 km/h 8 km/h 69 % 0 mm
16:30 14.8 °C 9.4 °C 1026 hPa SE 6.4 km/h 9.7 km/h 70 % 0 mm
16:35 14.7 °C 9.3 °C 1026 hPa SSE 4.8 km/h 9.7 km/h 70 % 0 mm
16:40 14.6 °C 9.4 °C 1026 hPa SSE 6.4 km/h 9.7 km/h 71 % 0 mm
16:45 14.5 °C 9.3 °C 1026 hPa ESE 4.8 km/h 9.7 km/h 71 % 0 mm
16:50 14.4 °C 9.4 °C 1026 hPa ESE 4.8 km/h 9.7 km/h 72 % 0 mm
16:55 14.3 °C 9.3 °C 1026 hPa South 4.8 km/h 9.7 km/h 72 % 0 mm
17:00 14.3 °C 9.3 °C 1025.6 hPa SSE 3.2 km/h 8 km/h 72 % 0 mm
17:05 14.2 °C 9.2 °C 1025.6 hPa SE 6.4 km/h 6.4 km/h 72 % 0 mm
17:06 14.2 °C 9.4 °C 1025.6 hPa SSE 3.2 km/h 6.4 km/h 73 % 0 mm
17:11 14.1 °C 9.3 °C 1026 hPa Calm   6.4 km/h 73 % 0 mm
17:16 14.1 °C 9.3 °C 1026 hPa Calm   6.4 km/h 73 % 0 mm
17:21 14.1 °C 9.3 °C 1026 hPa SE 1.6 km/h 6.4 km/h 73 % 0 mm
17:26 14.1 °C 9.3 °C 1026 hPa SSE 1.6 km/h 6.4 km/h 73 % 0 mm
17:31 13.9 °C 9.1 °C 1026 hPa SSE 1.6 km/h 6.4 km/h 73 % 0 mm
17:36 13.9 °C 9.1 °C 1026 hPa East 3.2 km/h 8 km/h 73 % 0 mm
17:41 13.9 °C 9.3 °C 1026 hPa SE 3.2 km/h 8 km/h 74 % 0 mm
17:46 13.8 °C 9.2 °C 1026 hPa SE 3.2 km/h 8 km/h 74 % 0 mm
17:51 13.7 °C 9.1 °C 1026 hPa East 3.2 km/h 8 km/h 74 % 0 mm
17:56 13.7 °C 9.1 °C 1026 hPa SE 3.2 km/h 8 km/h 74 % 0 mm
18:01 13.7 °C 9.1 °C 1026 hPa Calm   8 km/h 74 % 0 mm
18:06 13.7 °C 9.1 °C 1026 hPa SE 3.2 km/h 6.4 km/h 74 % 0 mm
18:11 13.6 °C 9.1 °C 1026 hPa SE 1.6 km/h 6.4 km/h 74 % 0 mm
18:16 13.6 °C 9.1 °C 1026 hPa Calm   6.4 km/h 74 % 0 mm
18:21 13.5 °C 9.2 °C 1026 hPa Calm   6.4 km/h 75 % 0 mm
18:26 13.4 °C 9.1 °C 1026 hPa ESE 1.6 km/h 4.8 km/h 75 % 0 mm
18:31 13.4 °C 9.1 °C 1026 hPa Calm   4.8 km/h 75 % 0 mm
18:36 13.4 °C 9.1 °C 1026 hPa East 1.6 km/h 4.8 km/h 75 % 0 mm
18:41 13.4 °C 9.3 °C 1026 hPa Calm   4.8 km/h 76 % 0 mm
18:46 13.3 °C 9.2 °C 1026 hPa East 1.6 km/h 4.8 km/h 76 % 0 mm
18:51 13.3 °C 9.4 °C 1026 hPa Calm   3.2 km/h 77 % 0 mm
18:56 13.3 °C 9.4 °C 1026 hPa SW 1.6 km/h 3.2 km/h 77 % 0 mm
19:01 13.3 °C 9.5 °C 1026.3 hPa SE 1.6 km/h 3.2 km/h 78 % 0 mm
19:06 13.3 °C 9.5 °C 1026.3 hPa Calm   3.2 km/h 78 % 0 mm
19:11 13.3 °C 9.5 °C 1026 hPa ESE 3.2 km/h 3.2 km/h 78 % 0 mm
19:16 13.3 °C 9.5 °C 1026 hPa Calm   3.2 km/h 78 % 0 mm
19:21 13.3 °C 9.5 °C 1026 hPa Calm   3.2 km/h 78 % 0 mm
19:26 13.3 °C 9.7 °C 1026 hPa South 1.6 km/h 3.2 km/h 79 % 0 mm
19:31 13.3 °C 9.7 °C 1026 hPa Calm   3.2 km/h 79 % 0 mm
19:36 13.2 °C 9.8 °C 1026 hPa Calm   3.2 km/h 80 % 0 mm
19:41 13.2 °C 9.8 °C 1026 hPa South 1.6 km/h 3.2 km/h 80 % 0 mm
19:46 13.1 °C 9.9 °C 1026 hPa Calm   3.2 km/h 81 % 0 mm
19:51 13.1 °C 9.9 °C 1026 hPa SSW 3.2 km/h 3.2 km/h 81 % 0 mm
19:56 13.1 °C 9.9 °C 1026 hPa SSW 1.6 km/h 3.2 km/h 81 % 0 mm
20:01 13.1 °C 10.1 °C 1026 hPa SSW 1.6 km/h 3.2 km/h 82 % 0 mm
20:06 13.1 °C 10.1 °C 1026 hPa South 1.6 km/h 4.8 km/h 82 % 0 mm
20:11 13.1 °C 10.1 °C 1026 hPa SW 1.6 km/h 4.8 km/h 82 % 0 mm
20:16 13.1 °C 10.1 °C 1026 hPa SSW 1.6 km/h 4.8 km/h 82 % 0 mm
20:21 13 °C 10 °C 1026 hPa Calm   3.2 km/h 82 % 0 mm
20:26 13 °C 10 °C 1026 hPa Calm   1.6 km/h 82 % 0 mm
20:31 13 °C 10 °C 1026 hPa Calm   1.6 km/h 82 % 0 mm
20:36 13 °C 10 °C 1026 hPa ESE 1.6 km/h 1.6 km/h 82 % 0 mm
20:41 13.1 °C 9.9 °C 1026 hPa Calm   1.6 km/h 81 % 0 mm
20:46 13.1 °C 9.9 °C 1026 hPa SE 1.6 km/h 1.6 km/h 81 % 0 mm
20:51 13.1 °C 9.7 °C 1026 hPa Calm   3.2 km/h 80 % 0 mm
20:56 13.2 °C 9.8 °C 1026 hPa East 1.6 km/h 3.2 km/h 80 % 0 mm
21:01 13.2 °C 9.8 °C 1026 hPa Calm   3.2 km/h 80 % 0 mm
21:06 13.2 °C 9.8 °C 1025.6 hPa Calm   3.2 km/h 80 % 0 mm
21:11 13.2 °C 9.8 °C 1025.6 hPa Calm   1.6 km/h 80 % 0 mm
21:16 13.2 °C 9.6 °C 1025.6 hPa Calm   1.6 km/h 79 % 0 mm
21:21 13.2 °C 9.8 °C 1025.6 hPa Calm   1.6 km/h 80 % 0 mm
21:26 13.2 °C 9.8 °C 1025.6 hPa SE 3.2 km/h 3.2 km/h 80 % 0 mm
21:31 13.2 °C 9.6 °C 1025.3 hPa Calm   3.2 km/h 79 % 0 mm
21:36 13.2 °C 9.6 °C 1025.3 hPa ESE 1.6 km/h 4.8 km/h 79 % 0 mm
21:41 13.2 °C 9.8 °C 1025.3 hPa SE 1.6 km/h 4.8 km/h 80 % 0 mm
21:47 13.2 °C 9.8 °C 1025.3 hPa SE 1.6 km/h 4.8 km/h 80 % 0 mm
21:52 13.2 °C 9.8 °C 1025.3 hPa SE 3.2 km/h 3.2 km/h 80 % 0 mm
21:57 13.2 °C 10 °C 1025.3 hPa ESE 1.6 km/h 6.4 km/h 81 % 0 mm
22:02 13.1 °C 9.9 °C 1025.3 hPa ESE 1.6 km/h 6.4 km/h 81 % 0 mm
22:07 13.1 °C 9.9 °C 1025.3 hPa SE 3.2 km/h 8 km/h 81 % 0 mm
22:12 13.1 °C 9.9 °C 1025.3 hPa Calm   8 km/h 81 % 0 mm
22:17 13.1 °C 9.9 °C 1025.3 hPa SE 1.6 km/h 8 km/h 81 % 0 mm
22:22 13.1 °C 9.9 °C 1025.3 hPa Calm   4.8 km/h 81 % 0 mm
22:27 13.1 °C 9.9 °C 1025.3 hPa Calm   4.8 km/h 81 % 0 mm
22:32 13 °C 9.8 °C 1025.3 hPa ESE 1.6 km/h 4.8 km/h 81 % 0 mm
22:37 13 °C 9.8 °C 1025.3 hPa SE 1.6 km/h 4.8 km/h 81 % 0 mm
22:42 13 °C 9.8 °C 1024.9 hPa Calm   4.8 km/h 81 % 0 mm
22:47 13 °C 9.8 °C 1024.9 hPa Calm   4.8 km/h 81 % 0 mm
22:52 13 °C 10 °C 1024.9 hPa ESE 3.2 km/h 4.8 km/h 82 % 0 mm
22:57 13 °C 10 °C 1024.9 hPa ESE 1.6 km/h 4.8 km/h 82 % 0 mm
23:02 13 °C 10 °C 1024.9 hPa ESE 1.6 km/h 4.8 km/h 82 % 0 mm
23:07 13 °C 10 °C 1024.9 hPa SE 1.6 km/h 4.8 km/h 82 % 0 mm
23:12 13 °C 10 °C 1024.9 hPa Calm   4.8 km/h 82 % 0 mm
23:17 12.9 °C 9.9 °C 1024.9 hPa Calm   4.8 km/h 82 % 0 mm
23:22 12.9 °C 9.9 °C 1024.9 hPa Calm   3.2 km/h 82 % 0 mm
23:27 12.9 °C 9.9 °C 1024.9 hPa Calm   1.6 km/h 82 % 0 mm
23:32 12.9 °C 9.9 °C 1024.9 hPa Calm   1.6 km/h 82 % 0 mm
23:37 12.9 °C 10.1 °C 1024.9 hPa Calm   1.6 km/h 83 % 0 mm
23:42 12.9 °C 10.1 °C 1024.6 hPa Calm   1.6 km/h 83 % 0 mm
23:47 12.9 °C 10.1 °C 1024.6 hPa Calm   1.6 km/h 83 % 0 mm
23:52 12.9 °C 10.1 °C 1024.6 hPa Calm   1.6 km/h 83 % 0 mm
23:57 12.9 °C 10.1 °C 1024.6 hPa Calm     83 % 0 mm
Spring, Texas: Villages of Bridgestone
Compliments of Weather Underground - 3.25 mb

Script developed by  Jim McMurry - jmcmurry@mwt.net Adapted for the template by  Wim van der Kuil - Leuven-Template.eu

You find our weather info also at:

UK Metoffice

WeatherCloud

Weather Underground

Mid-South Weather Network

AWEKAS

Citizen Weather Observer Program (CWOP)

HAMweather, WeatherForYou, PWS Weather

Equipment we use:

Weather-station
Davis Vantage Vue

Weather-program
Meteohub

Weather-server
Debian 7.9 x86 (Guest)

Provider
DreamHost

Davis Vantage Vue

Meteohub

Debian 7.9 x86 (Guest)

DreamHost